Time;durP1;ratioP1;P1;durP2;ratioP2;P2;SDS_P1;SDS_P2;PMS_P1;PMS_P2;Temp;Humidity;BMP_temperature;BMP_pressure;BME280_temperature;BME280_humidity;BME280_pressure;Samples;Min_cycle;Max_cycle;Signal;HPM_P1;HPM_P2
2024/01/09 00:01:06;;;;;;;21.57;12.93;;;;;;;;;;5047925;28;20079;-74
2024/01/09 00:03:32;;;;;;;29.10;13.63;;;;;;;;;;5049076;28;20017;-73
2024/01/09 00:05:57;;;;;;;28.80;12.63;;;;;;;;;;5048117;28;20029;-76
2024/01/09 00:08:23;;;;;;;40.20;14.30;;;;;;;;;;5047403;28;20032;-75
2024/01/09 00:10:48;;;;;;;38.40;13.30;;;;;;;;;;5048082;28;20127;-75
2024/01/09 00:13:14;;;;;;;27.33;12.20;;;;;;;;;;5047990;28;20170;-77
2024/01/09 00:15:40;;;;;;;28.70;13.70;;;;;;;;;;5050089;28;20033;-73
2024/01/09 00:18:05;;;;;;;53.53;13.40;;;;;;;;;;5049709;28;20021;-74
2024/01/09 00:20:31;;;;;;;26.20;10.83;;;;;;;;;;5050056;28;20021;-75
2024/01/09 00:22:57;;;;;;;33.53;13.37;;;;;;;;;;5051771;28;20108;-76
2024/01/09 00:25:23;;;;;;;28.40;12.90;;;;;;;;;;5051470;28;20025;-75
2024/01/09 00:27:48;;;;;;;33.47;14.27;;;;;;;;;;5051595;28;20028;-76
2024/01/09 00:30:14;;;;;;;30.93;13.60;;;;;;;;;;5031891;28;20125;-73
2024/01/09 00:32:40;;;;;;;31.93;13.40;;;;;;;;;;5031587;28;20029;-74
2024/01/09 00:35:06;;;;;;;32.50;14.13;;;;;;;;;;5031871;28;20025;-74
2024/01/09 00:37:33;;;;;;;27.90;13.30;;;;;;;;;;5033640;28;20021;-74
2024/01/09 00:39:58;;;;;;;37.07;14.10;;;;;;;;;;5038479;28;20394;-74
2024/01/09 00:42:24;;;;;;;41.27;14.07;;;;;;;;;;5041142;28;20071;-73
2024/01/09 00:44:49;;;;;;;25.67;12.97;;;;;;;;;;5035918;28;20237;-73
2024/01/09 00:47:15;;;;;;;27.13;13.23;;;;;;;;;;5031494;28;20049;-74
2024/01/09 00:49:44;;;;;;;21.63;11.67;;;;;;;;;;5048351;28;20065;-73
2024/01/09 00:52:10;;;;;;;31.57;11.93;;;;;;;;;;5052889;28;20056;-75
2024/01/09 00:54:35;;;;;;;31.70;12.77;;;;;;;;;;5051674;28;20052;-75
2024/01/09 00:57:01;;;;;;;29.20;12.33;;;;;;;;;;5052403;28;20035;-72
2024/01/09 00:59:26;;;;;;;32.50;12.73;;;;;;;;;;5042160;28;20345;-74
2024/01/09 01:01:52;;;;;;;32.43;12.33;;;;;;;;;;5036479;28;20547;-75
2024/01/09 01:04:18;;;;;;;31.33;12.77;;;;;;;;;;5035473;28;20384;-74
2024/01/09 01:06:44;;;;;;;29.93;13.73;;;;;;;;;;5033766;28;20049;-75
2024/01/09 01:09:10;;;;;;;27.50;13.27;;;;;;;;;;5036278;28;20044;-74
2024/01/09 01:11:39;;;;;;;36.57;11.73;;;;;;;;;;5034243;28;20504;-74
2024/01/09 01:14:04;;;;;;;25.63;12.83;;;;;;;;;;5033724;28;20105;-75
2024/01/09 01:16:30;;;;;;;31.07;13.03;;;;;;;;;;5032157;28;20021;-73
2024/01/09 01:18:56;;;;;;;29.53;12.63;;;;;;;;;;5039186;28;20029;-74
2024/01/09 01:21:23;;;;;;;29.30;12.97;;;;;;;;;;5051244;28;20484;-73
2024/01/09 01:23:49;;;;;;;34.30;13.33;;;;;;;;;;5051530;28;20029;-73
2024/01/09 01:26:14;;;;;;;40.57;14.03;;;;;;;;;;5050979;28;20082;-74
2024/01/09 01:28:40;;;;;;;37.57;13.23;;;;;;;;;;5045079;28;20485;-73
2024/01/09 01:31:06;;;;;;;29.00;12.00;;;;;;;;;;5030927;28;20056;-73
2024/01/09 01:33:32;;;;;;;34.27;11.17;;;;;;;;;;5033028;28;20067;-74
2024/01/09 01:35:57;;;;;;;31.50;11.43;;;;;;;;;;5015186;28;20072;-75
2024/01/09 01:38:23;;;;;;;27.77;12.10;;;;;;;;;;5035752;28;20082;-73
2024/01/09 01:40:49;;;;;;;39.30;13.33;;;;;;;;;;5052441;28;20028;-72
2024/01/09 01:43:14;;;;;;;29.80;12.40;;;;;;;;;;5050812;28;20108;-74
2024/01/09 01:45:40;;;;;;;33.37;12.23;;;;;;;;;;5050569;28;20029;-74
2024/01/09 01:48:06;;;;;;;31.33;14.63;;;;;;;;;;5051227;28;20048;-74
2024/01/09 01:50:33;;;;;;;29.93;14.70;;;;;;;;;;5051931;28;20591;-76
2024/01/09 01:53:01;;;;;;;35.50;13.00;;;;;;;;;;5051912;28;20055;-72
2024/01/09 01:55:28;;;;;;;22.17;11.83;;;;;;;;;;5049671;28;20021;-75
2024/01/09 01:57:55;;;;;;;30.27;13.63;;;;;;;;;;5051779;28;20635;-75
2024/01/09 02:00:25;;;;;;;40.20;13.37;;;;;;;;;;5032807;28;20030;-74
2024/01/09 02:02:52;;;;;;;27.43;13.47;;;;;;;;;;5030772;28;20112;-76
2024/01/09 02:05:19;;;;;;;31.80;12.97;;;;;;;;;;5030223;28;20028;-74
2024/01/09 02:07:49;;;;;;;39.73;14.97;;;;;;;;;;5013530;28;20033;-74
2024/01/09 02:10:16;;;;;;;30.27;13.23;;;;;;;;;;5049021;28;20025;-74
2024/01/09 02:12:43;;;;;;;27.80;13.10;;;;;;;;;;5051629;28;20035;-75
2024/01/09 02:15:09;;;;;;;23.03;11.87;;;;;;;;;;5035925;28;20118;-73
2024/01/09 02:17:35;;;;;;;39.83;14.10;;;;;;;;;;5051568;28;20024;-73
2024/01/09 02:20:03;;;;;;;26.40;12.00;;;;;;;;;;5039134;28;20029;-73
2024/01/09 02:22:29;;;;;;;30.67;12.77;;;;;;;;;;5035435;28;20112;-74
2024/01/09 02:24:54;;;;;;;34.00;15.73;;;;;;;;;;5034254;28;20057;-73
2024/01/09 02:27:29;;;;;;;25.30;11.50;;;;;;;;;;5041535;28;20480;-75
2024/01/09 02:29:55;;;;;;;31.67;13.63;;;;;;;;;;5041444;28;20500;-74
2024/01/09 02:32:22;;;;;;;35.37;14.97;;;;;;;;;;5031762;28;20025;-73
2024/01/09 02:34:48;;;;;;;39.10;15.13;;;;;;;;;;5030095;28;20057;-75
2024/01/09 02:37:14;;;;;;;32.63;12.20;;;;;;;;;;5033388;28;20044;-77
2024/01/09 02:39:40;;;;;;;30.90;13.23;;;;;;;;;;5032694;28;20029;-75
2024/01/09 02:42:05;;;;;;;36.47;14.50;;;;;;;;;;5031821;28;20512;-74
2024/01/09 02:44:31;;;;;;;35.93;12.73;;;;;;;;;;5030820;28;20083;-76
2024/01/09 02:46:57;;;;;;;32.67;11.33;;;;;;;;;;5031257;28;20403;-75
2024/01/09 02:49:22;;;;;;;33.90;14.70;;;;;;;;;;5032150;28;20047;-72
2024/01/09 02:51:49;;;;;;;28.00;11.50;;;;;;;;;;5033820;28;20088;-74
2024/01/09 02:54:15;;;;;;;30.50;12.30;;;;;;;;;;5033122;28;20619;-74
2024/01/09 02:56:41;;;;;;;23.10;11.40;;;;;;;;;;5034841;28;20100;-74
2024/01/09 02:59:07;;;;;;;36.27;14.20;;;;;;;;;;5034218;28;20029;-73
2024/01/09 03:01:32;;;;;;;34.27;12.80;;;;;;;;;;5036738;28;20025;-75
2024/01/09 03:03:58;;;;;;;29.27;11.80;;;;;;;;;;5052805;28;20023;-73
2024/01/09 03:06:23;;;;;;;38.13;13.37;;;;;;;;;;5049943;28;20116;-74
2024/01/09 03:08:49;;;;;;;32.97;15.40;;;;;;;;;;5031339;28;20116;-74
2024/01/09 03:11:15;;;;;;;27.27;12.97;;;;;;;;;;5029155;28;20059;-74
2024/01/09 03:13:41;;;;;;;30.40;12.40;;;;;;;;;;5029643;28;20033;-74
2024/01/09 03:16:13;;;;;;;39.20;14.50;;;;;;;;;;5029483;28;20017;-74
2024/01/09 03:18:40;;;;;;;29.93;12.97;;;;;;;;;;5045847;28;20393;-74
2024/01/09 03:21:12;;;;;;;35.77;12.17;;;;;;;;;;5051213;28;20496;-74
2024/01/09 03:23:37;;;;;;;28.83;14.25;;;;;;;;;;5033283;28;20036;-73
2024/01/09 03:26:03;;;;;;;29.70;12.67;;;;;;;;;;5049245;28;20037;-74
2024/01/09 03:28:31;;;;;;;22.83;11.60;;;;;;;;;;5016887;28;20057;-72
2024/01/09 03:30:58;;;;;;;27.27;12.33;;;;;;;;;;5030755;28;20095;-75
2024/01/09 03:33:24;;;;;;;29.53;11.90;;;;;;;;;;5030838;28;20041;-75
2024/01/09 03:35:51;;;;;;;24.63;11.10;;;;;;;;;;5030621;28;20017;-75
2024/01/09 03:38:17;;;;;;;31.70;13.17;;;;;;;;;;5042316;28;20499;-75
2024/01/09 03:40:43;;;;;;;32.33;12.87;;;;;;;;;;5048670;28;20033;-75
2024/01/09 03:43:08;;;;;;;32.53;12.83;;;;;;;;;;5050028;28;20037;-77
2024/01/09 03:45:34;;;;;;;20.83;11.40;;;;;;;;;;5048577;28;20163;-75
2024/01/09 03:47:59;;;;;;;36.13;12.63;;;;;;;;;;5039386;28;20040;-74
2024/01/09 03:50:26;;;;;;;24.70;11.93;;;;;;;;;;5030427;28;20045;-76
2024/01/09 03:52:52;;;;;;;28.80;13.30;;;;;;;;;;5028262;28;20049;-73
2024/01/09 03:55:17;;;;;;;31.87;13.23;;;;;;;;;;5031459;28;20029;-72
2024/01/09 03:57:43;;;;;;;36.90;12.63;;;;;;;;;;5041688;28;20044;-73
2024/01/09 04:00:09;;;;;;;20.00;11.87;;;;;;;;;;5052798;28;20025;-75
2024/01/09 04:02:35;;;;;;;26.57;12.17;;;;;;;;;;5053829;28;20029;-74
2024/01/09 04:05:01;;;;;;;30.30;12.53;;;;;;;;;;5043879;28;20128;-75
2024/01/09 04:07:28;;;;;;;28.33;13.60;;;;;;;;;;5034091;28;20450;-74
2024/01/09 04:09:53;;;;;;;24.90;11.67;;;;;;;;;;5032636;28;20128;-74
2024/01/09 04:12:19;;;;;;;25.33;13.17;;;;;;;;;;5032107;28;20124;-75
2024/01/09 04:14:45;;;;;;;27.67;12.30;;;;;;;;;;5033619;28;20074;-75
2024/01/09 04:17:12;;;;;;;29.80;14.27;;;;;;;;;;5032374;28;20037;-78
2024/01/09 04:19:38;;;;;;;35.60;15.07;;;;;;;;;;5033449;28;20499;-72
2024/01/09 04:22:05;;;;;;;30.67;11.30;;;;;;;;;;4999149;28;20037;-73
2024/01/09 04:24:31;;;;;;;36.80;15.07;;;;;;;;;;5019239;28;20033;-71
2024/01/09 04:26:57;;;;;;;39.77;12.93;;;;;;;;;;5054030;28;20025;-75
2024/01/09 04:29:23;;;;;;;28.43;13.30;;;;;;;;;;5057685;28;20055;-73
2024/01/09 04:31:48;;;;;;;29.57;12.77;;;;;;;;;;5055102;28;20083;-74
2024/01/09 04:34:14;;;;;;;33.07;11.10;;;;;;;;;;5055696;28;20059;-75
2024/01/09 04:36:39;;;;;;;30.10;12.07;;;;;;;;;;5035527;28;20025;-75
2024/01/09 04:39:05;;;;;;;25.23;9.90;;;;;;;;;;5031852;28;20092;-74
2024/01/09 04:41:31;;;;;;;34.03;13.83;;;;;;;;;;5033733;28;20129;-76
2024/01/09 04:43:56;;;;;;;36.83;14.27;;;;;;;;;;5042812;28;20032;-74
2024/01/09 04:46:22;;;;;;;30.23;12.73;;;;;;;;;;5059664;28;20029;-72
2024/01/09 04:48:49;;;;;;;27.73;12.90;;;;;;;;;;5056832;28;20043;-73
2024/01/09 04:51:14;;;;;;;34.73;14.90;;;;;;;;;;5053650;28;20098;-75
2024/01/09 04:53:42;;;;;;;19.27;11.00;;;;;;;;;;5052876;28;20052;-76
2024/01/09 04:56:08;;;;;;;24.50;13.10;;;;;;;;;;5034224;28;20037;-72
2024/01/09 04:58:36;;;;;;;19.30;11.13;;;;;;;;;;5032537;28;20494;-75
2024/01/09 05:01:02;;;;;;;32.40;14.17;;;;;;;;;;5015302;28;20060;-76
2024/01/09 05:03:27;;;;;;;25.73;13.53;;;;;;;;;;5032467;28;20057;-76
2024/01/09 05:05:54;;;;;;;35.03;12.60;;;;;;;;;;5032646;28;20033;-75
2024/01/09 05:08:19;;;;;;;31.10;13.70;;;;;;;;;;5034199;28;20121;-74
2024/01/09 05:10:45;;;;;;;30.60;11.87;;;;;;;;;;5034059;28;20061;-75
2024/01/09 05:13:11;;;;;;;36.77;14.23;;;;;;;;;;5035421;28;20049;-76
2024/01/09 05:15:37;;;;;;;44.83;13.00;;;;;;;;;;5047276;28;20041;-74
2024/01/09 05:18:03;;;;;;;25.50;13.20;;;;;;;;;;5053981;28;20257;-74
2024/01/09 05:20:29;;;;;;;38.77;16.47;;;;;;;;;;5053617;28;20074;-75
2024/01/09 05:22:55;;;;;;;37.63;12.73;;;;;;;;;;5053194;28;20029;-74
2024/01/09 05:25:20;;;;;;;41.03;14.90;;;;;;;;;;5044934;28;20460;-77
2024/01/09 05:27:46;;;;;;;32.17;12.70;;;;;;;;;;5030970;28;20103;-75
2024/01/09 05:30:13;;;;;;;39.60;15.93;;;;;;;;;;5031340;28;20075;-73
2024/01/09 05:32:39;;;;;;;33.33;13.23;;;;;;;;;;5030713;28;20388;-74
2024/01/09 05:35:05;;;;;;;27.87;12.23;;;;;;;;;;5037068;28;20033;-74
2024/01/09 05:37:30;;;;;;;41.57;16.00;;;;;;;;;;5051102;28;20062;-73
2024/01/09 05:39:57;;;;;;;25.33;12.30;;;;;;;;;;5052033;28;20053;-73
2024/01/09 05:42:23;;;;;;;22.73;12.97;;;;;;;;;;5052404;28;20036;-73
2024/01/09 05:44:50;;;;;;;31.60;14.57;;;;;;;;;;5050904;28;20343;-75
2024/01/09 05:47:16;;;;;;;44.40;14.00;;;;;;;;;;5037309;28;20496;-75
2024/01/09 05:49:43;;;;;;;34.47;15.50;;;;;;;;;;5050282;28;20071;-76
2024/01/09 05:52:09;;;;;;;31.07;14.20;;;;;;;;;;5051216;28;20106;-74
2024/01/09 05:54:34;;;;;;;31.33;12.80;;;;;;;;;;5049538;28;20437;-75
2024/01/09 05:57:06;;;;;;;33.30;15.93;;;;;;;;;;5033247;28;20037;-76
2024/01/09 05:59:31;;;;;;;32.13;13.82;;;;;;;;;;5033444;28;20053;-73
2024/01/09 06:02:01;;;;;;;31.90;12.67;;;;;;;;;;5033470;28;20026;-76
2024/01/09 06:04:27;;;;;;;38.83;16.27;;;;;;;;;;5035453;28;20022;-75
2024/01/09 06:06:53;;;;;;;30.93;12.33;;;;;;;;;;5053794;28;20035;-76
2024/01/09 06:09:19;;;;;;;35.03;16.53;;;;;;;;;;5053854;28;20025;-76
2024/01/09 06:11:44;;;;;;;29.53;14.17;;;;;;;;;;5055047;28;20025;-76
2024/01/09 06:14:10;;;;;;;44.33;15.87;;;;;;;;;;5037166;28;20571;-74
2024/01/09 06:16:36;;;;;;;43.63;14.87;;;;;;;;;;5042007;28;20044;-76
2024/01/09 06:19:03;;;;;;;24.50;13.67;;;;;;;;;;5038328;28;20040;-76
2024/01/09 06:21:31;;;;;;;32.07;13.87;;;;;;;;;;5032471;28;20029;-75
2024/01/09 06:23:58;;;;;;;35.33;14.33;;;;;;;;;;5030884;28;20021;-75
2024/01/09 06:26:28;;;;;;;30.53;15.47;;;;;;;;;;5048339;28;20033;-75
2024/01/09 06:28:54;;;;;;;33.90;12.57;;;;;;;;;;5053226;28;20029;-74
2024/01/09 06:31:20;;;;;;;31.03;12.30;;;;;;;;;;5054576;28;20036;-77
2024/01/09 06:33:45;;;;;;;25.33;15.00;;;;;;;;;;5053111;28;20064;-75
2024/01/09 06:36:11;;;;;;;34.97;13.13;;;;;;;;;;5050385;28;20396;-75
2024/01/09 06:38:37;;;;;;;42.77;18.23;;;;;;;;;;5050926;28;20017;-71
2024/01/09 06:41:02;;;;;;;44.90;17.00;;;;;;;;;;5052589;28;20345;-75
2024/01/09 06:43:28;;;;;;;40.70;14.50;;;;;;;;;;5049890;28;20518;-76
2024/01/09 06:45:55;;;;;;;27.87;11.90;;;;;;;;;;5043858;28;20115;-75
2024/01/09 06:48:21;;;;;;;34.80;15.97;;;;;;;;;;5039405;28;20055;-74
2024/01/09 06:50:47;;;;;;;30.53;14.67;;;;;;;;;;5047959;28;20017;-75
2024/01/09 06:53:14;;;;;;;37.37;16.70;;;;;;;;;;5048036;28;20052;-76
2024/01/09 06:55:39;;;;;;;26.13;14.03;;;;;;;;;;5049119;28;20025;-73
2024/01/09 06:58:08;;;;;;;29.77;14.93;;;;;;;;;;5035266;28;20049;-76
2024/01/09 07:00:34;;;;;;;37.60;15.70;;;;;;;;;;5052793;28;20394;-74
2024/01/09 07:02:59;;;;;;;36.30;15.83;;;;;;;;;;5040012;28;20210;-73
2024/01/09 07:05:25;;;;;;;24.80;13.33;;;;;;;;;;5048905;28;20457;-71
2024/01/09 07:07:52;;;;;;;29.37;14.60;;;;;;;;;;5039004;28;20130;-73
2024/01/09 07:10:20;;;;;;;26.13;13.50;;;;;;;;;;5020556;28;20043;-72
2024/01/09 07:12:46;;;;;;;35.80;15.47;;;;;;;;;;5036997;28;20039;-74
2024/01/09 07:15:14;;;;;;;26.27;14.57;;;;;;;;;;5052091;28;20033;-72
2024/01/09 07:17:41;;;;;;;31.70;13.67;;;;;;;;;;5045752;28;20263;-72
2024/01/09 07:20:08;;;;;;;38.50;14.73;;;;;;;;;;5019760;28;20121;-73
2024/01/09 07:22:34;;;;;;;29.03;13.50;;;;;;;;;;5029442;28;20045;-73
2024/01/09 07:25:00;;;;;;;43.33;15.93;;;;;;;;;;5051971;28;20140;-72
2024/01/09 07:27:26;;;;;;;40.57;18.40;;;;;;;;;;5051117;28;20079;-72
2024/01/09 07:29:53;;;;;;;37.73;14.77;;;;;;;;;;5041245;28;20034;-73
2024/01/09 07:32:21;;;;;;;30.77;15.93;;;;;;;;;;5047855;28;20044;-73
2024/01/09 07:34:48;;;;;;;41.37;14.67;;;;;;;;;;5039225;28;20515;-72
2024/01/09 07:37:14;;;;;;;23.80;12.87;;;;;;;;;;5042269;28;20043;-71
2024/01/09 07:39:42;;;;;;;41.60;16.97;;;;;;;;;;5041234;28;20468;-70
2024/01/09 07:42:08;;;;;;;44.73;19.00;;;;;;;;;;5037316;28;20197;-71
2024/01/09 07:44:35;;;;;;;41.27;14.77;;;;;;;;;;5038924;28;20101;-71
2024/01/09 07:47:15;;;;;;;37.90;18.10;;;;;;;;;;5037279;28;20044;-71
2024/01/09 07:49:41;;;;;;;35.07;14.37;;;;;;;;;;5032446;28;20106;-70
2024/01/09 07:52:09;;;;;;;32.97;14.80;;;;;;;;;;5049470;28;20547;-68
2024/01/09 07:54:35;;;;;;;29.10;13.90;;;;;;;;;;5023467;28;20481;-70
2024/01/09 07:57:01;;;;;;;36.17;17.70;;;;;;;;;;5033551;28;20040;-69
2024/01/09 07:59:29;;;;;;;35.97;14.77;;;;;;;;;;5030077;28;20588;-67
2024/01/09 08:01:56;;;;;;;38.70;17.10;;;;;;;;;;5035665;28;20495;-69
2024/01/09 08:04:24;;;;;;;30.67;16.67;;;;;;;;;;5032903;28;20033;-70
2024/01/09 08:06:52;;;;;;;39.63;16.27;;;;;;;;;;5025532;28;20685;-68
2024/01/09 08:09:20;;;;;;;32.30;13.63;;;;;;;;;;5035908;28;20569;-70
2024/01/09 08:11:47;;;;;;;41.43;17.10;;;;;;;;;;5020960;28;20065;-71
2024/01/09 08:14:15;;;;;;;42.93;16.80;;;;;;;;;;5035364;28;20498;-70
2024/01/09 08:16:41;;;;;;;21.30;10.23;;;;;;;;;;5040011;28;20106;-70
2024/01/09 08:19:08;;;;;;;32.07;15.00;;;;;;;;;;5035300;28;20502;-71
2024/01/09 08:21:37;;;;;;;30.03;13.23;;;;;;;;;;5035314;28;20029;-72
2024/01/09 08:24:03;;;;;;;40.03;17.37;;;;;;;;;;5025868;28;20029;-69
2024/01/09 08:26:31;;;;;;;35.57;15.43;;;;;;;;;;5016871;28;20044;-67
2024/01/09 08:28:57;;;;;;;39.10;15.33;;;;;;;;;;5036933;28;20030;-72
2024/01/09 08:31:23;;;;;;;36.47;17.43;;;;;;;;;;5033906;28;20028;-70
2024/01/09 08:33:49;;;;;;;29.83;14.40;;;;;;;;;;5037143;28;20040;-68
2024/01/09 08:36:15;;;;;;;31.70;13.30;;;;;;;;;;5051403;28;20033;-69
2024/01/09 08:38:42;;;;;;;36.80;15.53;;;;;;;;;;5040482;28;20045;-70
2024/01/09 08:41:08;;;;;;;37.03;15.23;;;;;;;;;;5042351;28;20025;-68
2024/01/09 08:43:34;;;;;;;44.03;17.03;;;;;;;;;;5022876;28;20140;-72
2024/01/09 08:46:00;;;;;;;37.57;19.50;;;;;;;;;;5034827;28;20120;-71
2024/01/09 08:48:27;;;;;;;31.23;14.87;;;;;;;;;;5036945;28;20548;-70
2024/01/09 08:50:54;;;;;;;45.63;15.20;;;;;;;;;;5038451;28;20037;-66
2024/01/09 08:53:20;;;;;;;34.50;16.20;;;;;;;;;;5042336;28;20403;-68
2024/01/09 08:55:46;;;;;;;37.80;15.17;;;;;;;;;;5039631;28;20048;-70
2024/01/09 08:58:11;;;;;;;34.23;14.87;;;;;;;;;;5041163;28;20041;-69
2024/01/09 09:00:37;;;;;;;28.63;12.90;;;;;;;;;;5040876;28;20171;-71
2024/01/09 09:03:07;;;;;;;37.07;14.77;;;;;;;;;;5031170;28;20110;-67
2024/01/09 09:05:33;;;;;;;35.60;14.43;;;;;;;;;;5037609;28;20032;-72
2024/01/09 09:07:59;;;;;;;30.40;13.77;;;;;;;;;;5026503;28;20045;-71
2024/01/09 09:10:24;;;;;;;45.40;17.13;;;;;;;;;;5042680;28;20374;-72
2024/01/09 09:12:50;;;;;;;39.20;16.27;;;;;;;;;;5041104;28;20059;-68
2024/01/09 09:15:16;;;;;;;29.20;13.73;;;;;;;;;;5040460;28;20094;-68
2024/01/09 09:17:41;;;;;;;44.40;16.57;;;;;;;;;;5037828;28;20041;-69
2024/01/09 09:20:08;;;;;;;43.47;16.53;;;;;;;;;;5022730;28;20964;-68
2024/01/09 09:22:35;;;;;;;42.03;17.93;;;;;;;;;;5040499;28;20036;-70
2024/01/09 09:25:01;;;;;;;38.07;15.63;;;;;;;;;;5035445;28;20055;-69
2024/01/09 09:27:26;;;;;;;45.67;18.07;;;;;;;;;;5042050;28;20547;-73
2024/01/09 09:29:53;;;;;;;36.87;16.77;;;;;;;;;;5027578;28;20039;-72
2024/01/09 09:32:18;;;;;;;41.77;17.13;;;;;;;;;;5038258;28;20029;-71
2024/01/09 09:34:44;;;;;;;52.10;22.97;;;;;;;;;;5045058;28;20028;-70
2024/01/09 09:37:11;;;;;;;68.47;20.37;;;;;;;;;;5036116;28;20384;-73
2024/01/09 09:39:37;;;;;;;35.70;16.93;;;;;;;;;;5044067;28;20037;-70
2024/01/09 09:42:03;;;;;;;41.73;16.17;;;;;;;;;;5042826;28;20047;-72
2024/01/09 09:44:34;;;;;;;44.33;17.33;;;;;;;;;;5041526;28;20692;-73
2024/01/09 09:47:01;;;;;;;47.65;19.17;;;;;;;;;;5045849;28;20032;-71
2024/01/09 09:49:28;;;;;;;38.37;17.80;;;;;;;;;;5025110;28;20049;-72
2024/01/09 09:51:56;;;;;;;43.03;18.37;;;;;;;;;;5042846;28;20087;-72
2024/01/09 09:54:23;;;;;;;39.20;17.13;;;;;;;;;;5045700;28;20041;-73
2024/01/09 09:56:49;;;;;;;42.17;18.00;;;;;;;;;;5045308;28;20021;-72
2024/01/09 09:59:17;;;;;;;35.93;17.57;;;;;;;;;;5046073;28;20493;-69
2024/01/09 10:01:45;;;;;;;43.77;18.50;;;;;;;;;;5051260;28;20041;-70
2024/01/09 10:04:43;;;;;;;53.17;21.93;;;;;;;;;;5032506;28;20051;-71
2024/01/09 10:07:10;;;;;;;49.43;19.83;;;;;;;;;;5028772;28;20086;-73
2024/01/09 10:09:46;;;;;;;47.87;21.30;;;;;;;;;;5042472;28;20048;-70
2024/01/09 10:12:11;;;;;;;43.40;18.47;;;;;;;;;;5031809;28;20033;-74
2024/01/09 10:14:37;;;;;;;41.67;17.60;;;;;;;;;;5044089;28;20396;-70
2024/01/09 10:17:05;;;;;;;50.33;20.47;;;;;;;;;;5049373;28;20116;-73
2024/01/09 10:19:30;;;;;;;59.37;21.40;;;;;;;;;;5038103;28;20124;-71
2024/01/09 10:21:56;;;;;;;56.30;20.07;;;;;;;;;;5040234;28;20061;-71
2024/01/09 10:24:22;;;;;;;40.63;18.23;;;;;;;;;;5039014;28;20100;-72
2024/01/09 10:26:54;;;;;;;48.90;21.17;;;;;;;;;;5041023;28;20476;-72
2024/01/09 10:29:20;;;;;;;50.47;20.42;;;;;;;;;;5024786;28;20139;-71
2024/01/09 10:31:45;;;;;;;47.00;18.37;;;;;;;;;;5021349;28;20139;-72
2024/01/09 10:34:11;;;;;;;52.23;19.83;;;;;;;;;;5043702;28;20097;-73
2024/01/09 10:36:37;;;;;;;36.87;18.53;;;;;;;;;;5040381;28;20327;-73
2024/01/09 10:39:06;;;;;;;42.20;19.10;;;;;;;;;;5041295;28;20033;-71
2024/01/09 10:41:35;;;;;;;40.33;16.90;;;;;;;;;;5044784;28;20095;-75
2024/01/09 10:44:01;;;;;;;52.10;19.80;;;;;;;;;;5041689;28;20575;-73
2024/01/09 10:46:31;;;;;;;38.53;17.23;;;;;;;;;;5044663;28;20028;-72
2024/01/09 10:49:00;;;;;;;52.73;16.63;;;;;;;;;;5040922;28;20036;-72
2024/01/09 10:51:28;;;;;;;44.60;15.70;;;;;;;;;;5043660;28;20057;-73
2024/01/09 10:53:57;;;;;;;30.70;13.13;;;;;;;;;;5043098;28;20057;-73
2024/01/09 10:56:23;;;;;;;39.97;15.20;;;;;;;;;;5043057;28;20056;-70
2024/01/09 10:58:51;;;;;;;26.50;11.57;;;;;;;;;;5025075;28;20388;-73
2024/01/09 11:01:17;;;;;;;28.10;11.67;;;;;;;;;;5039215;28;20025;-72
2024/01/09 11:03:43;;;;;;;30.33;12.83;;;;;;;;;;5044222;28;20051;-72
2024/01/09 11:06:10;;;;;;;28.43;13.23;;;;;;;;;;5039705;28;20039;-72
2024/01/09 11:08:37;;;;;;;29.53;13.17;;;;;;;;;;5049605;28;20033;-72
2024/01/09 11:11:08;;;;;;;28.17;14.20;;;;;;;;;;5043243;28;20425;-73
2024/01/09 11:13:38;;;;;;;32.92;13.85;;;;;;;;;;5051343;28;20029;-71
2024/01/09 11:16:07;;;;;;;38.77;12.33;;;;;;;;;;5045145;28;20299;-72
2024/01/09 11:18:35;;;;;;;38.20;14.40;;;;;;;;;;5046714;28;20037;-72
2024/01/09 11:21:03;;;;;;;31.77;11.57;;;;;;;;;;5043587;28;20037;-71
2024/01/09 11:23:52;;;;;;;32.83;14.90;;;;;;;;;;5045973;28;20031;-73
2024/01/09 11:26:36;;;;;;;31.00;13.63;;;;;;;;;;5036997;28;20045;-72
2024/01/09 11:29:03;;;;;;;35.30;13.70;;;;;;;;;;5042177;28;20321;-73
2024/01/09 11:31:30;;;;;;;29.17;13.20;;;;;;;;;;5037883;28;21349;-73
2024/01/09 11:34:01;;;;;;;28.57;13.23;;;;;;;;;;5038925;28;20120;-71
2024/01/09 11:36:34;;;;;;;35.13;13.47;;;;;;;;;;5025361;28;20239;-71
2024/01/09 11:39:01;;;;;;;34.67;12.97;;;;;;;;;;5021791;28;20136;-71
2024/01/09 11:41:35;;;;;;;33.17;12.97;;;;;;;;;;5031958;28;20041;-71
2024/01/09 11:44:06;;;;;;;57.07;15.60;;;;;;;;;;5037007;28;20025;-71
2024/01/09 11:46:37;;;;;;;32.83;13.13;;;;;;;;;;5027174;28;20065;-73
2024/01/09 11:49:05;;;;;;;36.58;14.80;;;;;;;;;;5020585;28;20080;-74
2024/01/09 11:51:36;;;;;;;35.97;13.17;;;;;;;;;;5043258;28;20056;-73
2024/01/09 11:54:04;;;;;;;31.92;13.25;;;;;;;;;;5013176;28;20322;-72
2024/01/09 11:56:32;;;;;;;40.57;13.37;;;;;;;;;;5037832;28;20100;-72
2024/01/09 11:59:00;;;;;;;35.00;12.83;;;;;;;;;;5041513;28;20163;-71
2024/01/09 12:01:26;;;;;;;24.50;12.67;;;;;;;;;;5037215;28;20108;-73
2024/01/09 12:03:53;;;;;;;39.70;14.17;;;;;;;;;;5037018;28;20021;-73
2024/01/09 12:06:24;;;;;;;37.03;13.90;;;;;;;;;;5047781;28;20135;-70
2024/01/09 12:08:52;;;;;;;36.03;14.27;;;;;;;;;;5033137;28;20061;-73
2024/01/09 12:11:18;;;;;;;35.40;14.40;;;;;;;;;;5045226;28;20108;-71
2024/01/09 12:13:45;;;;;;;31.63;13.57;;;;;;;;;;5041241;28;20172;-71
2024/01/09 12:16:18;;;;;;;29.17;13.23;;;;;;;;;;5043248;28;20025;-72
2024/01/09 12:18:51;;;;;;;29.77;13.27;;;;;;;;;;5044367;28;20127;-72
2024/01/09 12:21:18;;;;;;;33.90;13.57;;;;;;;;;;5049169;28;20032;-72
2024/01/09 12:23:47;;;;;;;25.77;12.30;;;;;;;;;;5044827;28;20032;-72
2024/01/09 12:26:15;;;;;;;33.17;13.87;;;;;;;;;;5045437;28;20116;-72
2024/01/09 12:28:41;;;;;;;28.33;13.37;;;;;;;;;;5036587;28;20037;-74
2024/01/09 12:31:07;;;;;;;30.37;14.20;;;;;;;;;;5037936;28;20071;-73
2024/01/09 12:33:33;;;;;;;38.53;15.37;;;;;;;;;;5046814;28;20154;-74
2024/01/09 12:36:01;;;;;;;32.03;12.53;;;;;;;;;;5049308;28;20518;-74
2024/01/09 12:38:27;;;;;;;31.17;13.97;;;;;;;;;;5028056;28;20029;-71
2024/01/09 12:41:04;;;;;;;32.43;13.87;;;;;;;;;;5043539;28;20052;-72
2024/01/09 12:43:32;;;;;;;32.50;11.90;;;;;;;;;;5041416;28;20027;-74
2024/01/09 12:46:00;;;;;;;31.33;12.80;;;;;;;;;;5048477;28;20037;-73
2024/01/09 12:48:26;;;;;;;31.40;12.07;;;;;;;;;;5046684;28;20324;-73
2024/01/09 12:51:01;;;;;;;27.60;12.43;;;;;;;;;;5050037;28;20025;-71
2024/01/09 12:53:34;;;;;;;27.43;11.07;;;;;;;;;;5045342;28;20045;-71
2024/01/09 12:56:14;;;;;;;42.67;12.83;;;;;;;;;;5026898;28;20124;-72
2024/01/09 12:58:47;;;;;;;32.10;12.07;;;;;;;;;;5044190;28;20056;-73
2024/01/09 13:01:13;;;;;;;25.43;10.07;;;;;;;;;;5044689;28;20041;-74
2024/01/09 13:03:40;;;;;;;25.90;11.43;;;;;;;;;;5041858;28;20096;-72
2024/01/09 13:06:09;;;;;;;28.57;11.27;;;;;;;;;;5045312;28;20017;-71
2024/01/09 13:08:38;;;;;;;35.63;11.97;;;;;;;;;;5048439;28;20336;-73
2024/01/09 13:11:06;;;;;;;36.90;12.23;;;;;;;;;;5043981;28;20064;-72
2024/01/09 13:13:33;;;;;;;27.87;11.50;;;;;;;;;;5047968;28;20088;-73
2024/01/09 13:15:59;;;;;;;31.57;10.60;;;;;;;;;;5047499;28;20368;-75
2024/01/09 13:18:25;;;;;;;34.03;12.57;;;;;;;;;;5048401;28;20381;-71
2024/01/09 13:20:54;;;;;;;33.40;12.20;;;;;;;;;;5051427;28;20025;-73
2024/01/09 13:23:20;;;;;;;31.07;10.80;;;;;;;;;;5045858;28;20025;-74
2024/01/09 13:25:46;;;;;;;27.80;11.13;;;;;;;;;;5046322;28;20021;-74
2024/01/09 13:28:11;;;;;;;36.40;14.13;;;;;;;;;;5047107;28;20021;-73
2024/01/09 13:30:38;;;;;;;24.50;11.67;;;;;;;;;;5045703;28;20457;-72
2024/01/09 13:33:04;;;;;;;29.53;11.90;;;;;;;;;;5045737;28;20039;-73
2024/01/09 13:35:32;;;;;;;32.00;12.07;;;;;;;;;;5039850;28;20032;-74
2024/01/09 13:38:00;;;;;;;28.73;11.87;;;;;;;;;;5031474;28;20037;-74
2024/01/09 13:40:25;;;;;;;22.77;10.27;;;;;;;;;;5044204;28;20014;-72
2024/01/09 13:42:51;;;;;;;28.67;11.50;;;;;;;;;;5047889;28;20020;-72
2024/01/09 13:45:22;;;;;;;29.73;12.87;;;;;;;;;;5047116;28;20027;-73
2024/01/09 13:47:47;;;;;;;23.73;11.20;;;;;;;;;;5037327;28;20344;-73
2024/01/09 13:50:13;;;;;;;34.87;11.73;;;;;;;;;;5046998;28;20020;-69
2024/01/09 13:52:39;;;;;;;34.33;11.77;;;;;;;;;;5043196;28;20029;-70
2024/01/09 13:55:08;;;;;;;31.60;11.73;;;;;;;;;;5043890;28;20037;-72
2024/01/09 13:57:34;;;;;;;24.33;11.03;;;;;;;;;;5041642;28;20033;-74
2024/01/09 14:00:09;;;;;;;25.20;10.93;;;;;;;;;;5039556;28;20083;-72
2024/01/09 14:02:38;;;;;;;24.23;9.93;;;;;;;;;;5042036;28;20058;-71
2024/01/09 14:05:07;;;;;;;26.60;10.87;;;;;;;;;;5046949;28;20496;-73
2024/01/09 14:07:36;;;;;;;25.60;10.00;;;;;;;;;;5051412;28;20064;-71
2024/01/09 14:10:03;;;;;;;24.13;9.70;;;;;;;;;;5055291;28;20108;-71
2024/01/09 14:12:32;;;;;;;35.17;11.57;;;;;;;;;;5052129;28;20092;-71
2024/01/09 14:14:58;;;;;;;30.83;12.60;;;;;;;;;;5042549;28;20041;-73